Time;durP1;ratioP1;P1;durP2;ratioP2;P2;SDS_P1;SDS_P2;PMS_P1;PMS_P2;Temp;Humidity;BMP_temperature;BMP_pressure;BME280_temperature;BME280_humidity;BME280_pressure;Samples;Min_cycle;Max_cycle;Signal;HPM_P1;HPM_P2
2022/02/21 00:05:14;;;;;;;1.90;0.60;;;;;;;;;;5087323;28;20031;-58
2022/02/21 00:07:58;;;;;;;1.77;0.60;;;;;;;;;;5090328;28;20032;-58
2022/02/21 00:10:37;;;;;;;6.63;1.05;;;;;;;;;;5089002;28;20024;-58
2022/02/21 00:13:28;;;;;;;;;;;;;;;;;;;;;
2022/02/21 00:15:58;;;;;;;2.67;1.00;;;;;;;;;;5090522;28;20049;-58
2022/02/21 00:21:16;;;;;;;3.33;0.98;;;;;;;;;;5090656;28;20092;-58
2022/02/21 00:23:56;;;;;;;3.05;1.00;;;;;;;;;;5090661;28;20051;-58
2022/02/21 00:26:42;;;;;;;1.63;0.70;;;;;;;;;;5090265;28;20037;-58
2022/02/21 00:29:34;;;;;;;;;;;;;;;;;;;;;
2022/02/21 00:35:03;;;;;;;3.97;0.60;;;;;;;;;;5090542;28;20067;-58
2022/02/21 00:37:41;;;;;;;5.07;0.75;;;;;;;;;;5090494;28;20116;-56
2022/02/21 00:40:13;;;;;;;0.85;0.40;;;;;;;;;;5056103;28;20024;-58
2022/02/21 00:42:43;;;;;;;4.07;0.70;;;;;;;;;;5091702;28;20047;-58
2022/02/21 00:45:27;;;;;;;3.08;0.98;;;;;;;;;;5092379;28;20039;-58
2022/02/21 00:48:30;;;;;;;;;;;;;;;;;;;;;
2022/02/21 00:51:09;;;;;;;1.20;0.50;;;;;;;;;;5109940;28;20067;-57
2022/02/21 00:54:01;;;;;;;0.90;0.43;;;;;;;;;;5090209;28;20043;-60
2022/02/21 00:56:58;;;;;;;3.45;1.15;;;;;;;;;;5109584;28;20058;-57
2022/02/21 00:59:44;;;;;;;;;;;;;;;;;;;;;
2022/02/21 01:02:22;;;;;;;1.05;0.30;;;;;;;;;;5074171;28;20060;-58
2022/02/21 01:14:39;;;;;;;1.52;0.80;;;;;;;;;;5007934;28;20064;-58
2022/02/21 01:17:18;;;;;;;0.95;0.40;;;;;;;;;;5008189;28;20050;-58
2022/02/21 01:19:53;;;;;;;1.42;0.43;;;;;;;;;;4988114;28;20094;-58
2022/02/21 01:22:40;;;;;;;1.67;0.43;;;;;;;;;;4987863;28;20157;-58
2022/02/21 01:25:31;;;;;;;2.85;0.80;;;;;;;;;;5024804;28;20105;-58
2022/02/21 01:28:17;;;;;;;3.90;1.02;;;;;;;;;;5066775;28;20099;-58
2022/02/21 01:30:59;;;;;;;1.35;0.80;;;;;;;;;;5044753;28;20627;-58
2022/02/21 01:33:41;;;;;;;3.42;0.55;;;;;;;;;;5065048;28;20113;-58
2022/02/21 01:36:29;;;;;;;1.17;0.47;;;;;;;;;;5048600;28;20358;-58
2022/02/21 01:39:18;;;;;;;3.60;1.58;;;;;;;;;;5067304;28;20037;-58
2022/02/21 01:45:32;;;;;;;;;;;;;;;;;;;;;
2022/02/21 01:48:23;;;;;;;6.28;1.20;;;;;;;;;;5067174;28;20400;-58
2022/02/21 01:51:24;;;;;;;;;;;;;;;;;;;;;
2022/02/21 01:57:08;;;;;;;1.95;0.60;;;;;;;;;;5109310;28;20043;-58
2022/02/21 01:59:47;;;;;;;2.90;0.88;;;;;;;;;;5090406;28;20048;-58
2022/02/21 02:06:03;;;;;;;2.72;0.73;;;;;;;;;;5027182;28;20030;-58
2022/02/21 02:09:12;;;;;;;3.28;0.30;;;;;;;;;;5027121;28;20523;-58
2022/02/21 02:15:04;;;;;;;2.00;0.55;;;;;;;;;;4948908;29;20052;-58
2022/02/21 02:18:03;;;;;;;1.58;0.57;;;;;;;;;;4969838;28;20042;-58
2022/02/21 02:20:44;;;;;;;1.05;0.60;;;;;;;;;;5102198;28;20036;-57
2022/02/21 02:23:37;;;;;;;3.20;0.50;;;;;;;;;;5108870;28;20028;-58
2022/02/21 02:26:09;;;;;;;1.05;0.43;;;;;;;;;;5007360;28;20041;-58
2022/02/21 02:28:58;;;;;;;2.58;0.60;;;;;;;;;;5007098;28;20031;-58
2022/02/21 02:32:09;;;;;;;;;;;;;;;;;;;;;
2022/02/21 02:34:41;;;;;;;1.27;0.50;;;;;;;;;;4991423;28;20070;-58
2022/02/21 02:40:33;;;;;;;2.88;1.08;;;;;;;;;;4971858;29;20039;-58
2022/02/21 02:43:46;;;;;;;1.48;0.43;;;;;;;;;;4974204;28;20032;-58
2022/02/21 02:46:31;;;;;;;0.82;0.52;;;;;;;;;;4919060;29;20056;-58
2022/02/21 02:49:25;;;;;;;1.30;0.63;;;;;;;;;;4974166;28;20035;-59
2022/02/21 02:52:15;;;;;;;1.13;0.40;;;;;;;;;;5049896;28;20113;-58
2022/02/21 02:54:57;;;;;;;0.82;0.43;;;;;;;;;;5010204;28;20108;-58
2022/02/21 02:57:55;;;;;;;0.80;0.35;;;;;;;;;;5045091;28;20040;-58
2022/02/21 03:00:23;;;;;;;0.47;0.15;;;;;;;;;;5050400;28;20068;-58
2022/02/21 03:03:08;;;;;;;0.80;0.47;;;;;;;;;;5050226;28;20043;-58
2022/02/21 03:05:58;;;;;;;1.63;0.70;;;;;;;;;;5050045;28;20034;-58
2022/02/21 03:11:32;;;;;;;1.92;0.40;;;;;;;;;;5035486;28;20036;-58
2022/02/21 03:14:34;;;;;;;0.98;0.50;;;;;;;;;;5032308;28;20073;-58
2022/02/21 03:19:52;;;;;;;2.08;0.47;;;;;;;;;;5081005;28;20031;-58
2022/02/21 03:22:22;;;;;;;1.50;0.40;;;;;;;;;;5073731;28;20025;-58
2022/02/21 03:25:20;;;;;;;1.00;0.40;;;;;;;;;;5091238;28;20029;-58
2022/02/21 03:28:17;;;;;;;0.77;0.40;;;;;;;;;;5079069;28;20063;-58
2022/02/21 03:33:49;;;;;;;2.40;0.63;;;;;;;;;;5049021;28;20037;-58
2022/02/21 03:39:28;;;;;;;0.75;0.30;;;;;;;;;;5029001;28;20097;-58
2022/02/21 03:42:23;;;;;;;0.57;0.38;;;;;;;;;;5029486;28;20404;-58
2022/02/21 03:45:27;;;;;;;0.95;0.30;;;;;;;;;;5058466;28;20058;-58
2022/02/21 03:48:04;;;;;;;0.40;0.20;;;;;;;;;;5010023;28;20118;-58
2022/02/21 03:50:45;;;;;;;0.98;0.38;;;;;;;;;;5009864;28;20031;-57
2022/02/21 03:53:53;;;;;;;0.80;0.25;;;;;;;;;;5009848;28;20030;-56
2022/02/21 03:56:20;;;;;;;1.65;0.20;;;;;;;;;;5008773;28;20053;-58
2022/02/21 03:59:14;;;;;;;1.10;0.40;;;;;;;;;;5009506;28;20135;-58
2022/02/21 04:02:18;;;;;;;0.10;0.10;;;;;;;;;;5009514;28;20033;-57
2022/02/21 04:05:17;;;;;;;0.08;0.08;;;;;;;;;;4997235;28;20034;-58
2022/02/21 04:10:43;;;;;;;0.88;0.30;;;;;;;;;;5009372;28;20131;-57
2022/02/21 04:13:49;;;;;;;4.25;0.40;;;;;;;;;;5077254;28;20037;-58
2022/02/21 04:16:18;;;;;;;2.05;0.30;;;;;;;;;;5088684;28;20040;-57
2022/02/21 04:19:17;;;;;;;0.45;0.25;;;;;;;;;;5073015;28;20456;-58
2022/02/21 04:21:59;;;;;;;0.10;0.10;;;;;;;;;;5088504;28;20032;-56
2022/02/21 04:28:01;;;;;;;0.40;0.20;;;;;;;;;;5089574;28;20036;-58
2022/02/21 04:30:51;;;;;;;4.87;1.17;;;;;;;;;;5071762;28;20037;-59
2022/02/21 04:33:43;;;;;;;0.10;0.10;;;;;;;;;;5075822;28;20446;-54
2022/02/21 04:36:45;;;;;;;;;;;;;;;;;;;;;
2022/02/21 04:39:25;;;;;;;3.07;0.47;;;;;;;;;;5007523;28;20040;-58
2022/02/21 04:42:04;;;;;;;0.17;0.17;;;;;;;;;;5075389;28;20025;-58
2022/02/21 04:45:07;;;;;;;2.10;0.60;;;;;;;;;;5056922;28;20029;-57
2022/02/21 04:47:55;;;;;;;;;;;;;;;;;;;;;
2022/02/21 04:50:33;;;;;;;1.70;1.60;;;;;;;;;;5078843;28;20449;-58
2022/02/21 04:53:17;;;;;;;0.95;0.40;;;;;;;;;;5096037;28;20497;-58
2022/02/21 05:02:27;;;;;;;3.08;1.10;;;;;;;;;;5053038;28;20045;-57
2022/02/21 05:05:10;;;;;;;0.97;0.40;;;;;;;;;;5095401;28;20032;-58
2022/02/21 05:07:51;;;;;;;2.83;0.67;;;;;;;;;;5090475;28;20048;-58
2022/02/21 05:10:53;;;;;;;1.50;0.83;;;;;;;;;;5095945;28;20339;-57
2022/02/21 05:16:50;;;;;;;1.97;0.87;;;;;;;;;;4982095;28;20042;-58
2022/02/21 05:19:49;;;;;;;1.57;0.50;;;;;;;;;;5093138;28;20115;-58
2022/02/21 05:22:31;;;;;;;1.33;0.70;;;;;;;;;;5092162;28;20039;-58
2022/02/21 05:28:15;;;;;;;6.80;1.27;;;;;;;;;;5095112;28;20059;-58
2022/02/21 05:31:04;;;;;;;2.17;1.35;;;;;;;;;;5077527;28;20048;-58
2022/02/21 05:36:36;;;;;;;8.43;2.27;;;;;;;;;;5067493;28;20068;-58
2022/02/21 05:39:11;;;;;;;4.97;0.82;;;;;;;;;;5067497;28;20037;-57
2022/02/21 05:41:47;;;;;;;9.27;1.27;;;;;;;;;;5067392;28;20411;-58
2022/02/21 05:44:34;;;;;;;2.60;1.17;;;;;;;;;;5067575;28;20052;-58
2022/02/21 05:47:25;;;;;;;6.45;1.40;;;;;;;;;;5038770;28;20101;-58
2022/02/21 05:53:18;;;;;;;1.73;1.17;;;;;;;;;;4968374;29;20043;-58
2022/02/21 05:58:58;;;;;;;2.83;0.95;;;;;;;;;;5046886;28;20038;-58
2022/02/21 06:01:44;;;;;;;5.07;2.00;;;;;;;;;;5047287;28;20048;-57
2022/02/21 06:07:59;;;;;;;7.35;1.10;;;;;;;;;;5037689;28;20030;-58
2022/02/21 06:10:51;;;;;;;6.13;1.50;;;;;;;;;;5063048;28;20063;-58
2022/02/21 06:13:35;;;;;;;3.47;1.17;;;;;;;;;;5093158;28;20074;-58
2022/02/21 06:16:10;;;;;;;4.35;1.05;;;;;;;;;;5092282;28;20048;-58
2022/02/21 06:22:04;;;;;;;;;;;;;;;;;;;;;
2022/02/21 06:37:32;;;;;;;2.88;1.63;;;;;;;;;;5072974;28;20134;-57
2022/02/21 06:40:07;;;;;;;2.03;0.90;;;;;;;;;;5059546;28;20078;-58
2022/02/21 06:42:59;;;;;;;7.45;1.80;;;;;;;;;;5060463;28;20400;-58
2022/02/21 06:46:02;;;;;;;1.60;0.70;;;;;;;;;;5078102;28;20037;-58
2022/02/21 06:54:26;;;;;;;4.20;1.30;;;;;;;;;;5097786;28;20105;-58
2022/02/21 06:57:24;;;;;;;;;;;;;;;;;;;;;
2022/02/21 07:00:29;;;;;;;4.22;1.17;;;;;;;;;;5097984;28;20110;-58
2022/02/21 07:03:28;;;;;;;;;;;;;;;;;;;;;
2022/02/21 07:06:07;;;;;;;3.42;1.50;;;;;;;;;;5098333;28;20111;-58
2022/02/21 07:08:55;;;;;;;4.43;2.03;;;;;;;;;;5100458;28;20031;-57
2022/02/21 07:17:37;;;;;;;;;;;;;;;;;;;;;
2022/02/21 07:20:35;;;;;;;9.50;1.33;;;;;;;;;;5095871;28;20031;-57
2022/02/21 07:32:34;;;;;;;9.45;1.38;;;;;;;;;;5050685;28;20128;-58
2022/02/21 07:35:06;;;;;;;2.23;0.50;;;;;;;;;;5073439;28;20556;-58
2022/02/21 07:37:42;;;;;;;3.22;1.25;;;;;;;;;;5090006;28;20096;-58
2022/02/21 07:43:44;;;;;;;5.10;1.77;;;;;;;;;;5052822;28;20089;-58
2022/02/21 07:49:39;;;;;;;5.85;1.00;;;;;;;;;;5050513;28;20040;-58
2022/02/21 07:52:55;;;;;;;4.80;1.38;;;;;;;;;;5077739;28;20147;-58
2022/02/21 07:55:27;;;;;;;10.27;1.38;;;;;;;;;;5005063;28;20096;-58
2022/02/21 07:58:32;;;;;;;1.65;0.85;;;;;;;;;;5095926;28;20024;-57
2022/02/21 08:01:04;;;;;;;8.25;2.00;;;;;;;;;;5094162;28;20113;-58
2022/02/21 08:03:45;;;;;;;7.93;1.60;;;;;;;;;;5063534;28;20397;-57
2022/02/21 08:06:29;;;;;;;4.75;1.63;;;;;;;;;;5089883;28;20028;-58
2022/02/21 08:09:07;;;;;;;2.60;0.60;;;;;;;;;;5096616;28;20103;-57
2022/02/21 08:12:07;;;;;;;4.28;1.15;;;;;;;;;;5077474;28;20057;-57
2022/02/21 08:14:36;;;;;;;5.25;2.17;;;;;;;;;;5095776;28;20050;-57
2022/02/21 08:20:00;;;;;;;3.55;1.63;;;;;;;;;;5095545;28;20055;-58
2022/02/21 08:26:14;;;;;;;2.33;1.10;;;;;;;;;;5084615;28;20446;-57
2022/02/21 08:29:02;;;;;;;7.55;1.98;;;;;;;;;;4992924;28;20117;-58
2022/02/21 08:34:44;;;;;;;15.38;2.55;;;;;;;;;;5081334;28;20354;-58
2022/02/21 08:37:37;;;;;;;5.63;1.35;;;;;;;;;;5096228;28;20031;-57
2022/02/21 08:43:28;;;;;;;;;;;;;;;;;;4984611;28;20030;-57
2022/02/21 08:46:13;;;;;;;;;;;;;;;;;;;;;
2022/02/21 08:49:39;;;;;;;3.92;1.25;;;;;;;;;;5092417;28;20054;-58
2022/02/21 08:52:24;;;;;;;10.50;2.08;;;;;;;;;;4992745;28;20042;-56
2022/02/21 08:55:04;;;;;;;5.43;2.15;;;;;;;;;;4966209;28;20038;-56
2022/02/21 09:04:25;;;;;;;9.55;1.85;;;;;;;;;;5049687;28;20473;-58
2022/02/21 09:10:33;;;;;;;;;;;;;;;;;;;;;
2022/02/21 09:13:10;;;;;;;11.32;1.40;;;;;;;;;;5109630;28;20074;-57
2022/02/21 09:16:06;;;;;;;5.63;1.85;;;;;;;;;;5109576;28;20039;-58
2022/02/21 09:21:59;;;;;;;5.50;2.22;;;;;;;;;;5110101;28;20039;-58
2022/02/21 09:24:53;;;;;;;3.10;1.52;;;;;;;;;;5110051;28;20056;-58
2022/02/21 09:27:32;;;;;;;4.78;1.77;;;;;;;;;;5088829;28;20036;-58
2022/02/21 09:36:56;;;;;;;;;;;;;;;;;;;;;
2022/02/21 09:39:50;;;;;;;9.18;1.80;;;;;;;;;;5109685;28;20050;-57
2022/02/21 09:45:41;;;;;;;5.35;1.38;;;;;;;;;;5109050;28;20036;-58
2022/02/21 09:48:39;;;;;;;8.30;1.73;;;;;;;;;;5108967;28;20036;-58
2022/02/21 09:51:21;;;;;;;3.83;1.35;;;;;;;;;;5065478;28;20106;-58
2022/02/21 09:54:16;;;;;;;8.18;1.60;;;;;;;;;;5066552;28;20041;-58
2022/02/21 09:57:16;;;;;;;4.22;1.30;;;;;;;;;;5067033;28;20036;-57
2022/02/21 09:59:45;;;;;;;7.90;1.55;;;;;;;;;;5063022;28;20036;-58
2022/02/21 10:02:46;;;;;;;4.05;1.65;;;;;;;;;;5041059;28;20036;-57
2022/02/21 10:05:30;;;;;;;6.25;2.05;;;;;;;;;;5034260;28;20530;-58
2022/02/21 10:11:39;;;;;;;8.48;1.35;;;;;;;;;;5019973;28;20456;-58
2022/02/21 10:14:19;;;;;;;2.78;1.15;;;;;;;;;;5032155;28;20044;-58
2022/02/21 10:20:11;;;;;;;3.92;1.10;;;;;;;;;;5040035;28;20036;-58
2022/02/21 10:23:07;;;;;;;6.93;1.50;;;;;;;;;;5083067;28;20043;-58
2022/02/21 10:25:59;;;;;;;6.22;1.70;;;;;;;;;;5095928;28;20450;-58
2022/02/21 10:32:12;;;;;;;8.32;2.00;;;;;;;;;;5092209;28;20474;-58
2022/02/21 10:35:23;;;;;;;;;;;;;;;;;;;;;
2022/02/21 10:41:17;;;;;;;5.03;1.52;;;;;;;;;;5094056;28;20465;-58
2022/02/21 10:43:52;;;;;;;3.33;1.63;;;;;;;;;;5065398;28;20516;-58
2022/02/21 10:49:28;;;;;;;4.85;1.25;;;;;;;;;;5089318;28;20147;-58
2022/02/21 10:55:48;;;;;;;4.13;1.45;;;;;;;;;;5084352;28;20558;-58
2022/02/21 10:58:36;;;;;;;3.22;1.05;;;;;;;;;;5095123;28;20404;-58
2022/02/21 11:01:23;;;;;;;5.00;1.33;;;;;;;;;;5097449;28;20051;-58
2022/02/21 11:10:04;;;;;;;6.13;0.95;;;;;;;;;;5096747;28;20382;-58
2022/02/21 11:12:39;;;;;;;4.75;0.88;;;;;;;;;;5077771;28;20111;-58
2022/02/21 11:15:49;;;;;;;8.60;2.03;;;;;;;;;;5063482;28;20032;-58
2022/02/21 11:18:50;;;;;;;1.17;0.38;;;;;;;;;;5049902;28;20028;-59
2022/02/21 11:21:44;;;;;;;1.80;0.98;;;;;;;;;;5079717;28;20373;-58
2022/02/21 11:24:38;;;;;;;1.88;0.70;;;;;;;;;;5078247;28;20043;-58
2022/02/21 11:27:43;;;;;;;2.75;0.93;;;;;;;;;;5073056;28;20474;-58
2022/02/21 11:30:15;;;;;;;2.60;1.23;;;;;;;;;;5096826;28;20491;-58
2022/02/21 11:33:02;;;;;;;3.17;1.10;;;;;;;;;;5096966;28;20461;-58
2022/02/21 11:35:48;;;;;;;2.92;0.57;;;;;;;;;;5096443;28;20031;-58
2022/02/21 11:38:35;;;;;;;;;;;;;;;;;;;;;
2022/02/21 11:41:20;;;;;;;1.05;0.68;;;;;;;;;;5028196;28;20379;-58
2022/02/21 11:43:47;;;;;;;6.03;1.25;;;;;;;;;;5078076;28;20481;-56
2022/02/21 11:46:58;;;;;;;;;;;;;;;;;;;;;
2022/02/21 11:49:30;;;;;;;6.00;1.17;;;;;;;;;;5096793;28;20432;-59
2022/02/21 11:52:25;;;;;;;3.17;0.82;;;;;;;;;;5060483;28;20071;-59
2022/02/21 12:01:00;;;;;;;2.30;0.90;;;;;;;;;;5096169;28;20490;-58
2022/02/21 12:03:47;;;;;;;2.53;0.80;;;;;;;;;;5095973;28;20074;-59
2022/02/21 12:12:51;;;;;;;5.32;1.40;;;;;;;;;;5013769;28;20030;-58
2022/02/21 12:15:58;;;;;;;4.30;0.70;;;;;;;;;;5014597;28;20038;-59
2022/02/21 12:18:50;;;;;;;;;;;;;;;;;;;;;
2022/02/21 12:21:34;;;;;;;2.28;0.82;;;;;;;;;;4915750;29;20035;-59
2022/02/21 12:27:22;;;;;;;6.13;1.02;;;;;;;;;;4975156;28;20508;-58
2022/02/21 12:33:03;;;;;;;2.28;0.80;;;;;;;;;;5023093;28;20037;-59
2022/02/21 12:35:57;;;;;;;;;;;;;;;;;;;;;
2022/02/21 12:38:45;;;;;;;2.58;1.17;;;;;;;;;;4984968;28;20092;-58
2022/02/21 12:41:41;;;;;;;8.43;1.42;;;;;;;;;;5016901;28;20116;-58
2022/02/21 12:44:12;;;;;;;2.05;0.73;;;;;;;;;;4994033;28;20065;-59
2022/02/21 12:47:04;;;;;;;4.97;0.93;;;;;;;;;;4994282;28;20041;-59
2022/02/21 12:49:49;;;;;;;;;;;;;;;;;;;;;
2022/02/21 12:52:36;;;;;;;3.78;1.00;;;;;;;;;;5081712;28;20054;-61
2022/02/21 12:55:08;;;;;;;2.90;0.98;;;;;;;;;;5078862;28;20123;-57
2022/02/21 13:01:19;;;;;;;;;;;;;;;;;;;;;
2022/02/21 13:04:06;;;;;;;1.75;0.50;;;;;;;;;;5091447;28;20272;-58
2022/02/21 13:06:58;;;;;;;2.70;0.50;;;;;;;;;;5075822;28;20367;-58
2022/02/21 13:09:31;;;;;;;4.15;0.88;;;;;;;;;;5074046;28;20465;-59
2022/02/21 13:19:07;;;;;;;;;;;;;;;;;;;;;
2022/02/21 13:21:39;;;;;;;;;;;;;;;;;;5095015;28;20488;-58
2022/02/21 13:24:34;;;;;;;1.17;0.55;;;;;;;;;;5074104;28;19911;-58
2022/02/21 13:27:05;;;;;;;6.63;0.77;;;;;;;;;;5078135;28;20047;-60
2022/02/21 13:32:42;;;;;;;;;;;;;;;;;;5094682;28;20031;-59
2022/02/21 13:35:35;;;;;;;4.65;1.00;;;;;;;;;;5075884;28;20327;-60
2022/02/21 13:38:07;;;;;;;2.13;0.65;;;;;;;;;;5010988;28;20454;-60
2022/02/21 13:40:41;;;;;;;2.90;0.80;;;;;;;;;;5031898;28;20087;-60
2022/02/21 13:49:26;;;;;;;0.15;0.10;;;;;;;;;;4979711;28;20031;-59
2022/02/21 13:52:21;;;;;;;1.38;0.43;;;;;;;;;;5031600;28;20599;-60
2022/02/21 13:55:12;;;;;;;2.35;0.68;;;;;;;;;;5031741;28;20073;-59
2022/02/21 13:58:06;;;;;;;1.08;0.57;;;;;;;;;;5024913;28;20407;-59
2022/02/21 14:00:58;;;;;;;2.47;0.82;;;;;;;;;;5031845;28;20121;-59
2022/02/21 14:09:47;;;;;;;1.42;0.55;;;;;;;;;;5081344;28;20035;-57
2022/02/21 14:15:19;;;;;;;1.10;0.38;;;;;;;;;;5094493;28;20036;-60
2022/02/21 14:17:52;;;;;;;1.48;0.40;;;;;;;;;;5072239;28;20056;-57
2022/02/21 14:20:36;;;;;;;0.22;0.13;;;;;;;;;;5094402;28;20028;-58
2022/02/21 14:23:18;;;;;;;1.25;0.43;;;;;;;;;;5086726;28;20029;-59
2022/02/21 14:29:23;;;;;;;0.90;0.43;;;;;;;;;;5075609;28;20034;-58
2022/02/21 14:32:14;;;;;;;1.85;0.57;;;;;;;;;;5079842;28;20082;-59
2022/02/21 14:35:03;;;;;;;2.78;0.95;;;;;;;;;;5077804;28;20115;-58
2022/02/21 14:38:07;;;;;;;1.15;0.57;;;;;;;;;;5086344;28;20482;-58
2022/02/21 14:41:14;;;;;;;1.13;0.50;;;;;;;;;;4996240;28;20018;-58
2022/02/21 14:46:51;;;;;;;2.20;0.40;;;;;;;;;;5097623;28;20035;-58
2022/02/21 14:49:46;;;;;;;1.02;0.43;;;;;;;;;;5079769;28;20102;-59
2022/02/21 14:52:37;;;;;;;1.45;0.70;;;;;;;;;;5076610;28;20501;-59
2022/02/21 14:55:43;;;;;;;3.37;0.47;;;;;;;;;;5097397;28;20040;-59
2022/02/21 14:58:32;;;;;;;3.20;0.98;;;;;;;;;;5016827;28;20278;-59
2022/02/21 15:01:16;;;;;;;3.10;0.88;;;;;;;;;;5079535;28;20431;-60
2022/02/21 15:03:58;;;;;;;5.75;2.13;;;;;;;;;;5098241;28;20457;-60
2022/02/21 15:06:44;;;;;;;3.42;1.15;;;;;;;;;;5098706;28;20020;-59
2022/02/21 15:09:26;;;;;;;3.97;0.77;;;;;;;;;;5079745;28;20498;-58
2022/02/21 15:18:38;;;;;;;1.45;0.60;;;;;;;;;;5061838;28;20040;-58
2022/02/21 15:21:14;;;;;;;2.15;0.55;;;;;;;;;;5077642;28;20036;-59
2022/02/21 15:23:47;;;;;;;7.93;1.20;;;;;;;;;;5096938;28;20032;-58
2022/02/21 15:26:34;;;;;;;0.32;0.20;;;;;;;;;;5097337;28;20043;-58
2022/02/21 15:29:06;;;;;;;3.35;0.88;;;;;;;;;;5054361;28;20526;-58
2022/02/21 15:34:57;;;;;;;1.95;0.47;;;;;;;;;;5053808;28;20474;-58
2022/02/21 15:37:27;;;;;;;5.25;1.00;;;;;;;;;;5054610;28;20068;-58
2022/02/21 15:40:25;;;;;;;2.67;1.23;;;;;;;;;;5013170;28;20038;-58
2022/02/21 15:46:00;;;;;;;1.50;0.50;;;;;;;;;;5014350;28;20100;-58
2022/02/21 15:48:53;;;;;;;4.10;0.65;;;;;;;;;;4991706;28;20030;-58
2022/02/21 15:51:26;;;;;;;1.10;0.47;;;;;;;;;;5005839;28;20054;-58
2022/02/21 15:54:34;;;;;;;1.48;0.30;;;;;;;;;;4994278;28;20078;-58
2022/02/21 15:57:11;;;;;;;4.70;0.98;;;;;;;;;;4986565;28;20049;-59
2022/02/21 15:59:59;;;;;;;;;;;;;;;;;;;;;
2022/02/21 16:02:54;;;;;;;0.80;0.30;;;;;;;;;;5014895;28;20410;-59
2022/02/21 16:05:58;;;;;;;1.83;1.10;;;;;;;;;;5014347;28;20037;-59
2022/02/21 16:11:27;;;;;;;3.00;0.63;;;;;;;;;;4917350;29;20032;-59
2022/02/21 16:17:05;;;;;;;2.85;0.77;;;;;;;;;;4861040;29;20029;-58
2022/02/21 16:23:24;;;;;;;3.90;0.80;;;;;;;;;;4955582;29;20043;-58
2022/02/21 16:26:07;;;;;;;1.10;0.65;;;;;;;;;;4882530;29;20032;-58
2022/02/21 16:29:00;;;;;;;;;;;;;;;;;;;;;
2022/02/21 16:31:53;;;;;;;4.35;0.85;;;;;;;;;;5055231;28;20027;-58
2022/02/21 16:44:00;;;;;;;;;;;;;;;;;;;;;
2022/02/21 16:46:57;;;;;;;1.50;0.65;;;;;;;;;;5039233;28;20035;-59
2022/02/21 16:49:53;;;;;;;;;;;;;;;;;;;;;
2022/02/21 16:52:31;;;;;;;0.85;0.57;;;;;;;;;;5076396;28;20134;-59
2022/02/21 16:58:21;;;;;;;0.20;0.10;;;;;;;;;;5037182;28;20032;-60
2022/02/21 17:00:56;;;;;;;2.83;1.02;;;;;;;;;;5077758;28;20016;-60
2022/02/21 17:03:50;;;;;;;2.60;0.52;;;;;;;;;;5095476;28;20507;-59
2022/02/21 17:06:41;;;;;;;4.68;0.55;;;;;;;;;;5075644;28;20097;-60
2022/02/21 17:12:44;;;;;;;1.08;0.57;;;;;;;;;;5063883;28;20414;-60
2022/02/21 17:15:29;;;;;;;0.85;0.40;;;;;;;;;;4993885;28;20057;-60
2022/02/21 17:18:07;;;;;;;2.78;0.77;;;;;;;;;;4993391;28;20034;-59
2022/02/21 17:20:44;;;;;;;0.68;0.38;;;;;;;;;;5073899;28;20092;-59
2022/02/21 17:23:19;;;;;;;3.20;1.30;;;;;;;;;;5049404;28;20188;-59
2022/02/21 17:25:49;;;;;;;2.70;0.85;;;;;;;;;;5095602;28;20032;-59
2022/02/21 17:31:23;;;;;;;0.70;0.30;;;;;;;;;;5102053;28;20058;-60
2022/02/21 17:34:04;;;;;;;1.17;0.40;;;;;;;;;;5076322;28;20562;-60
2022/02/21 17:36:58;;;;;;;6.10;1.38;;;;;;;;;;5094006;28;20073;-60
2022/02/21 17:39:31;;;;;;;0.45;0.28;;;;;;;;;;5094602;28;20039;-59
2022/02/21 17:45:16;;;;;;;1.42;0.90;;;;;;;;;;5094568;28;20034;-60
2022/02/21 17:50:53;;;;;;;1.05;0.38;;;;;;;;;;5078915;28;20470;-59
2022/02/21 17:53:42;;;;;;;1.08;0.55;;;;;;;;;;5090726;28;20118;-59
2022/02/21 17:56:31;;;;;;;;;;;;;;;;;;;;;
2022/02/21 17:59:32;;;;;;;0.60;0.20;;;;;;;;;;5089855;28;20492;-58
2022/02/21 18:02:20;;;;;;;2.22;0.55;;;;;;;;;;5076066;28;20500;-59
2022/02/21 18:05:03;;;;;;;2.58;0.57;;;;;;;;;;5075048;28;20362;-58
2022/02/21 18:07:56;;;;;;;1.67;0.73;;;;;;;;;;5098103;28;20020;-59
2022/02/21 18:16:34;;;;;;;0.90;0.40;;;;;;;;;;5097833;28;20362;-58
2022/02/21 18:19:09;;;;;;;2.72;0.55;;;;;;;;;;5070376;28;20039;-59
2022/02/21 18:24:55;;;;;;;1.98;0.65;;;;;;;;;;5082729;28;20115;-59
2022/02/21 18:27:43;;;;;;;4.15;0.82;;;;;;;;;;5053932;28;20046;-58
2022/02/21 18:30:45;;;;;;;1.50;1.15;;;;;;;;;;5093652;28;20032;-59
2022/02/21 18:33:30;;;;;;;;;;;;;;;;;;;;;
2022/02/21 18:36:25;;;;;;;2.28;1.00;;;;;;;;;;5029157;28;20042;-59
2022/02/21 18:39:08;;;;;;;1.30;0.80;;;;;;;;;;5099114;28;20038;-58
2022/02/21 18:41:48;;;;;;;4.82;0.77;;;;;;;;;;5097910;28;20462;-58
2022/02/21 18:44:55;;;;;;;0.50;0.22;;;;;;;;;;5098364;28;20532;-57
2022/02/21 18:47:45;;;;;;;2.88;1.25;;;;;;;;;;5097807;28;20024;-58
2022/02/21 18:51:00;;;;;;;2.92;0.40;;;;;;;;;;5080127;28;20457;-58
2022/02/21 18:53:36;;;;;;;2.42;1.02;;;;;;;;;;5077745;28;20052;-58
2022/02/21 18:56:24;;;;;;;;;;;;;;;;;;;;;
2022/02/21 18:58:50;;;;;;;2.17;1.10;;;;;;;;;;5058842;28;20044;-58
2022/02/21 19:05:00;;;;;;;2.67;1.30;;;;;;;;;;5041983;28;20033;-59
2022/02/21 19:10:25;;;;;;;3.53;1.48;;;;;;;;;;5097506;28;20474;-59
2022/02/21 19:13:27;;;;;;;5.93;0.80;;;;;;;;;;5081631;28;20020;-55
2022/02/21 19:16:32;;;;;;;2.53;0.82;;;;;;;;;;5042822;28;20028;-59
2022/02/21 19:19:13;;;;;;;3.28;1.02;;;;;;;;;;5097785;28;20442;-59
2022/02/21 19:21:45;;;;;;;2.47;0.32;;;;;;;;;;5097546;28;20050;-58
2022/02/21 19:24:36;;;;;;;2.25;0.85;;;;;;;;;;5097522;28;20400;-59
2022/02/21 19:27:05;;;;;;;3.45;0.57;;;;;;;;;;5097148;28;20365;-59
2022/02/21 19:29:58;;;;;;;5.57;1.20;;;;;;;;;;5079069;28;20028;-59
2022/02/21 19:36:05;;;;;;;;;;;;;;;;;;;;;
2022/02/21 19:41:24;;;;;;;7.00;1.08;;;;;;;;;;5097554;28;20036;-58
2022/02/21 19:43:53;;;;;;;4.25;1.48;;;;;;;;;;5095124;28;20493;-59
2022/02/21 19:46:41;;;;;;;3.50;0.50;;;;;;;;;;5085255;28;20111;-59
2022/02/21 19:49:26;;;;;;;1.58;0.70;;;;;;;;;;5102792;28;20028;-59
2022/02/21 19:52:15;;;;;;;;;;;;;;;;;;;;;
2022/02/21 19:58:33;;;;;;;2.57;0.97;;;;;;;;;;5013742;28;20041;-59
2022/02/21 20:07:45;;;;;;;4.65;0.82;;;;;;;;;;5050775;28;20036;-59
2022/02/21 20:13:35;;;;;;;3.08;1.30;;;;;;;;;;4972595;28;20073;-59
2022/02/21 20:19:28;;;;;;;3.22;0.88;;;;;;;;;;5012962;28;20033;-59
2022/02/21 20:22:05;;;;;;;2.35;0.50;;;;;;;;;;5065640;28;20051;-59
2022/02/21 20:24:54;;;;;;;5.43;0.60;;;;;;;;;;5076604;28;20036;-59
2022/02/21 20:33:56;;;;;;;3.85;1.67;;;;;;;;;;5056027;28;20043;-59
2022/02/21 20:36:53;;;;;;;4.30;1.63;;;;;;;;;;5091999;28;20031;-59
2022/02/21 20:45:09;;;;;;;4.22;1.17;;;;;;;;;;5084131;28;20036;-59
2022/02/21 20:47:54;;;;;;;4.10;0.95;;;;;;;;;;5094769;28;20085;-59
2022/02/21 20:50:50;;;;;;;1.65;0.90;;;;;;;;;;5095067;28;20422;-59
2022/02/21 20:53:36;;;;;;;2.55;0.60;;;;;;;;;;5094877;28;20039;-58
2022/02/21 20:59:07;;;;;;;4.25;1.33;;;;;;;;;;5095676;28;20043;-59
2022/02/21 21:02:10;;;;;;;3.80;1.15;;;;;;;;;;5101336;28;20039;-58
2022/02/21 21:08:10;;;;;;;;;;;;;;;;;;;;;
2022/02/21 21:11:15;;;;;;;7.40;1.30;;;;;;;;;;5104878;28;20076;-58
2022/02/21 21:13:57;;;;;;;;;;;;;;;;;;;;;
2022/02/21 21:16:26;;;;;;;2.95;1.13;;;;;;;;;;5006836;28;20130;-59
2022/02/21 21:25:18;;;;;;;3.47;0.63;;;;;;;;;;5007235;28;20133;-58
2022/02/21 21:28:16;;;;;;;;;;;;;;;;;;;;;
2022/02/21 21:30:56;;;;;;;1.92;1.10;;;;;;;;;;5007385;28;20065;-59
2022/02/21 21:33:34;;;;;;;3.10;0.77;;;;;;;;;;5007941;28;20054;-59
2022/02/21 21:39:39;;;;;;;4.57;0.82;;;;;;;;;;5078646;28;20020;-58
2022/02/21 21:42:21;;;;;;;8.00;1.35;;;;;;;;;;5084113;28;20036;-59
2022/02/21 21:44:53;;;;;;;7.90;1.25;;;;;;;;;;5069372;28;20033;-58
2022/02/21 21:47:55;;;;;;;5.47;1.73;;;;;;;;;;5086625;28;20048;-58
2022/02/21 21:50:34;;;;;;;2.97;0.85;;;;;;;;;;5007250;28;20031;-58
2022/02/21 21:56:24;;;;;;;4.03;1.15;;;;;;;;;;5007591;28;20129;-59
2022/02/21 22:02:31;;;;;;;7.93;1.50;;;;;;;;;;4970708;28;20026;-58
2022/02/21 22:05:18;;;;;;;0.85;0.40;;;;;;;;;;5006864;28;20034;-59
2022/02/21 22:07:51;;;;;;;3.95;1.45;;;;;;;;;;5022782;28;20050;-59
2022/02/21 22:10:33;;;;;;;1.80;1.02;;;;;;;;;;5008093;28;20041;-59
2022/02/21 22:13:08;;;;;;;7.97;1.02;;;;;;;;;;5039364;28;20051;-59
2022/02/21 22:16:11;;;;;;;4.57;1.67;;;;;;;;;;5090384;28;20020;-59
2022/02/21 22:18:47;;;;;;;5.40;1.17;;;;;;;;;;5108443;28;20013;-59
2022/02/21 22:21:19;;;;;;;4.13;0.90;;;;;;;;;;5108510;28;20067;-58
2022/02/21 22:24:09;;;;;;;4.85;1.15;;;;;;;;;;5108291;28;20087;-59
2022/02/21 22:26:57;;;;;;;2.78;1.00;;;;;;;;;;5061863;28;20036;-59
2022/02/21 22:32:41;;;;;;;;;;;;;;;;;;;;;
2022/02/21 22:35:39;;;;;;;2.70;1.23;;;;;;;;;;5030388;28;20468;-59
2022/02/21 22:38:34;;;;;;;4.63;1.58;;;;;;;;;;5080474;28;20024;-59
2022/02/21 22:41:33;;;;;;;;;;;;;;;;;;;;;
2022/02/21 22:44:11;;;;;;;4.20;0.77;;;;;;;;;;5107832;28;20051;-59
2022/02/21 22:49:53;;;;;;;1.65;0.47;;;;;;;;;;5109900;28;20055;-59
2022/02/21 22:52:28;;;;;;;3.22;0.85;;;;;;;;;;5110306;28;20087;-59
2022/02/21 22:54:55;;;;;;;5.13;1.30;;;;;;;;;;5111614;28;20056;-59
2022/02/21 22:57:43;;;;;;;5.07;1.02;;;;;;;;;;5068843;28;20056;-59
2022/02/21 23:00:39;;;;;;;5.53;0.95;;;;;;;;;;5052395;28;20072;-59
2022/02/21 23:03:17;;;;;;;7.57;0.98;;;;;;;;;;5069328;28;20025;-59
2022/02/21 23:09:11;;;;;;;4.75;1.90;;;;;;;;;;5068308;28;20036;-59
2022/02/21 23:11:51;;;;;;;3.20;1.17;;;;;;;;;;5039957;28;20029;-59
2022/02/21 23:14:49;;;;;;;2.28;1.40;;;;;;;;;;5069079;28;20087;-59
2022/02/21 23:20:47;;;;;;;7.05;1.42;;;;;;;;;;5069383;28;20100;-59
2022/02/21 23:23:21;;;;;;;2.75;1.70;;;;;;;;;;5068921;28;20040;-59